Terminal Aerodrome Forecast
Issued by NWS Lake Charles, LA

Home | Current Version | Previous Version | Text Only | Print | Product List | Glossary On
Versions: 1 2 3 4 5 6 7 8 9 10 11 12 13 14 15 16 17 18 19 20 21 22 23
164
FTUS44 KLCH 210713 AAA
TAFLFT
TAF AMD
KLFT 210713Z 2107/2206 17013G19KT P6SM OVC007
      TEMPO 2107/2110 17015G25KT 1SM -TSRA OVC004CB
     FM211100 VRB04KT 1/2SM FG OVC003
     FM211600 22010KT P6SM OVC015
     FM220000 22012KT 4SM BR OVC004=

USA.gov is the U.S. government's official web portal to all federal, state and local government web resources and services.